Terminal Aerodrome Forecast
Issued by NWS

Home | Current Version | Previous Version | Text Only | Print | Product List | Glossary On
Versions: 1 2 3 4 5 6 7 8 9 10 11 12 13 14 15 16 17 18 19
742
FTUS43 KDVN 242350
TAFBRL
TAF
KBRL 242350Z 2500/2524 31005KT 4SM -RA BR OVC050
     FM250300 35008KT 3SM -RA BR OVC030
     FM250500 04012KT 3SM -RA BR BKN008 OVC012
     FM251000 04014G22KT 3SM -RA BR OVC006=

USA.gov is the U.S. government's official web portal to all federal, state and local government web resources and services.